Time;durP1;ratioP1;P1;durP2;ratioP2;P2;SDS_P1;SDS_P2;PMS_P1;PMS_P2;Temp;Humidity;BMP_temperature;BMP_pressure;BME280_temperature;BME280_humidity;BME280_pressure;Samples;Min_cycle;Max_cycle;Signal;HPM_P1;HPM_P2
2023/12/10 00:01:46;;;;;;;4.87;1.77;;;;;;;4.05;100.00;99423.09;5034094;28;20439;-64
2023/12/10 00:04:13;;;;;;;7.13;1.73;;;;;;;4.01;100.00;99422.06;5034264;28;20541;-64
2023/12/10 00:06:41;;;;;;;4.77;1.40;;;;;;;4.05;100.00;99428.47;5034063;28;20526;-64
2023/12/10 00:09:08;;;;;;;5.53;1.90;;;;;;;4.04;100.00;99416.94;5034730;28;20443;-64
2023/12/10 00:11:35;;;;;;;2.00;0.80;;;;;;;4.04;100.00;99421.53;5033982;28;20775;-64
2023/12/10 00:14:02;;;;;;;3.10;1.63;;;;;;;4.08;100.00;99422.53;5034133;28;20989;-64
2023/12/10 00:16:29;;;;;;;3.77;1.70;;;;;;;4.08;100.00;99422.53;5034204;28;20451;-64
2023/12/10 00:18:56;;;;;;;3.30;1.47;;;;;;;4.07;100.00;99420.91;5033761;28;20439;-64
2023/12/10 00:21:22;;;;;;;4.90;2.00;;;;;;;4.08;100.00;99422.53;5034425;28;20443;-64
2023/12/10 00:23:50;;;;;;;3.07;1.20;;;;;;;4.07;100.00;99425.50;5034271;28;20471;-64
2023/12/10 00:26:17;;;;;;;2.73;0.70;;;;;;;4.03;100.00;99428.75;5034424;28;20439;-64
2023/12/10 00:28:44;;;;;;;4.00;1.13;;;;;;;4.00;100.00;99426.66;5033998;28;20443;-64
2023/12/10 00:31:11;;;;;;;2.00;0.87;;;;;;;4.02;100.00;99429.81;5033931;28;20493;-63
2023/12/10 00:33:38;;;;;;;3.30;1.63;;;;;;;4.03;100.00;99425.28;5033879;28;20494;-64
2023/12/10 00:36:06;;;;;;;4.63;1.63;;;;;;;4.10;100.00;99427.59;5033845;28;20486;-64
2023/12/10 00:38:33;;;;;;;4.13;2.00;;;;;;;4.11;100.00;99427.31;5033889;28;20438;-64
2023/12/10 00:41:01;;;;;;;2.83;1.03;;;;;;;4.12;100.00;99418.22;5033301;28;20973;-64
2023/12/10 00:43:27;;;;;;;2.80;1.20;;;;;;;4.05;100.00;99421.22;5033758;28;20443;-64
2023/12/10 00:45:54;;;;;;;3.20;0.97;;;;;;;4.09;100.00;99428.69;5034342;28;20558;-64
2023/12/10 00:48:21;;;;;;;2.37;0.73;;;;;;;4.03;100.00;99422.59;5033627;28;20462;-64
2023/12/10 00:50:48;;;;;;;4.03;1.53;;;;;;;4.03;100.00;99422.59;5033680;28;20447;-64
2023/12/10 00:53:15;;;;;;;2.70;0.77;;;;;;;4.06;100.00;99419.34;5033636;28;20431;-64
2023/12/10 00:55:44;;;;;;;2.77;1.37;;;;;;;4.07;100.00;99412.88;5033560;28;20435;-64
2023/12/10 00:58:13;;;;;;;2.77;0.97;;;;;;;4.03;100.00;99407.31;5033258;28;20493;-64
2023/12/10 01:00:40;;;;;;;2.50;1.10;;;;;;;4.05;100.00;99415.06;5033536;28;20461;-64
2023/12/10 01:03:07;;;;;;;4.77;1.50;;;;;;;3.95;100.00;99407.16;5033507;28;20485;-64
2023/12/10 01:05:34;;;;;;;2.47;1.23;;;;;;;3.92;100.00;99402.38;5033008;28;20486;-64
2023/12/10 01:08:01;;;;;;;2.40;1.00;;;;;;;3.92;100.00;99405.03;5033139;28;20446;-64
2023/12/10 01:10:28;;;;;;;3.70;1.67;;;;;;;3.93;100.00;99398.59;5033122;28;20443;-64
2023/12/10 01:12:54;;;;;;;4.33;1.70;;;;;;;3.94;100.00;99402.88;5033175;28;20927;-64
2023/12/10 01:15:29;;;;;;;4.20;1.60;;;;;;;3.89;100.00;99398.38;5032899;28;20994;-64
2023/12/10 01:17:56;;;;;;;5.40;1.80;;;;;;;3.91;100.00;99398.09;5047510;22;20407;-69
2023/12/10 01:20:23;;;;;;;3.27;2.60;;;;;;;3.93;100.00;99406.63;5033369;28;20435;-69
2023/12/10 01:22:50;;;;;;;8.33;1.70;;;;;;;3.90;100.00;99401.88;5033857;28;20509;-69
2023/12/10 01:25:17;;;;;;;2.90;1.20;;;;;;;3.90;100.00;99399.97;5033065;28;21022;-69
2023/12/10 01:27:43;;;;;;;2.10;0.87;;;;;;;3.95;100.00;99415.19;5033772;28;20435;-69
2023/12/10 01:30:11;;;;;;;3.90;1.90;;;;;;;3.95;100.00;99417.88;5033548;28;20875;-69
2023/12/10 01:32:39;;;;;;;4.17;1.83;;;;;;;3.97;100.00;99424.53;5033626;28;20809;-70
2023/12/10 01:35:07;;;;;;;3.00;1.33;;;;;;;3.99;100.00;99432.31;5033419;28;20862;-70
2023/12/10 01:37:34;;;;;;;2.90;1.23;;;;;;;3.99;100.00;99441.13;5033840;28;20443;-70
2023/12/10 01:40:01;;;;;;;4.30;2.00;;;;;;;4.02;100.00;99439.75;5033295;28;20439;-70
2023/12/10 01:42:29;;;;;;;3.03;1.30;;;;;;;4.01;100.00;99443.50;5033328;28;20509;-70
2023/12/10 01:44:56;;;;;;;7.80;2.30;;;;;;;4.01;100.00;99443.50;5033541;28;20522;-70
2023/12/10 01:47:23;;;;;;;5.20;2.20;;;;;;;4.05;100.00;99444.53;5033252;28;20495;-70
2023/12/10 01:49:51;;;;;;;3.10;1.03;;;;;;;4.03;100.00;99447.50;5033228;28;20493;-70
2023/12/10 01:52:18;;;;;;;2.87;1.37;;;;;;;4.05;100.00;99452.56;5033123;28;20461;-70
2023/12/10 01:54:45;;;;;;;2.00;0.80;;;;;;;4.00;100.00;99441.91;5036368;28;20874;-69
2023/12/10 01:57:12;;;;;;;3.03;1.23;;;;;;;3.96;100.00;99427.50;5037164;28;20447;-69
2023/12/10 01:59:39;;;;;;;3.23;1.67;;;;;;;3.92;100.00;99429.94;5036777;28;20443;-70
2023/12/10 02:02:06;;;;;;;2.57;1.13;;;;;;;3.95;100.00;99442.00;5036755;28;20501;-70
2023/12/10 02:04:33;;;;;;;2.80;1.10;;;;;;;3.93;100.00;99444.94;5036592;28;20546;-70
2023/12/10 02:07:01;;;;;;;3.40;1.97;;;;;;;3.90;100.00;99444.72;5036659;28;20852;-70
2023/12/10 02:09:28;;;;;;;2.33;1.23;;;;;;;3.90;100.00;99439.38;5036826;28;20823;-70
2023/12/10 02:11:56;;;;;;;2.17;1.03;;;;;;;3.88;100.00;99439.63;5036927;28;20439;-70
2023/12/10 02:14:23;;;;;;;2.30;0.60;;;;;;;3.88;100.00;99445.00;5036533;28;20821;-70
2023/12/10 02:16:49;;;;;;;4.13;1.00;;;;;;;3.88;100.00;99452.22;5036783;28;20471;-70
2023/12/10 02:19:16;;;;;;;2.60;0.80;;;;;;;3.86;100.00;99455.19;5036297;28;20453;-70
2023/12/10 02:21:46;;;;;;;4.00;1.43;;;;;;;3.86;100.00;99457.09;5036631;28;20818;-70
2023/12/10 02:24:22;;;;;;;4.40;1.50;;;;;;;3.83;100.00;99450.41;5036703;28;20491;-69
2023/12/10 02:26:50;;;;;;;2.27;0.80;;;;;;;3.80;100.00;99454.44;5036809;28;20474;-67
2023/12/10 02:29:17;;;;;;;2.23;1.33;;;;;;;3.82;100.00;99445.34;5036073;28;20931;-66
2023/12/10 02:31:43;;;;;;;4.60;1.30;;;;;;;3.81;100.00;99444.56;5035974;28;20443;-69
2023/12/10 02:34:10;;;;;;;2.40;0.87;;;;;;;3.82;100.00;99453.38;5036318;28;20499;-70
2023/12/10 02:36:37;;;;;;;2.30;1.00;;;;;;;3.84;100.00;99453.88;5036302;28;20853;-69
2023/12/10 02:39:04;;;;;;;6.40;2.10;;;;;;;3.85;100.00;99456.28;5036376;28;20443;-70
2023/12/10 02:41:30;;;;;;;3.13;1.27;;;;;;;3.84;100.00;99449.31;5036294;28;20439;-69
2023/12/10 02:43:59;;;;;;;2.50;1.07;;;;;;;3.86;100.00;99454.41;5036615;28;20494;-70
2023/12/10 02:46:25;;;;;;;3.60;1.17;;;;;;;3.86;100.00;99457.88;5035837;28;20486;-70
2023/12/10 02:48:52;;;;;;;2.53;0.63;;;;;;;3.87;100.00;99440.72;5035920;28;20435;-70
2023/12/10 02:51:19;;;;;;;2.10;0.70;;;;;;;3.86;100.00;99443.69;5035966;28;20439;-69
2023/12/10 02:53:45;;;;;;;3.13;1.63;;;;;;;3.83;100.00;99449.59;5036092;28;20993;-69
2023/12/10 02:56:12;;;;;;;2.53;0.90;;;;;;;3.82;100.00;99453.38;5035856;28;20493;-70
2023/12/10 02:58:39;;;;;;;4.43;2.40;;;;;;;3.73;100.00;99448.63;5036029;28;20450;-70
2023/12/10 03:01:07;;;;;;;2.73;1.07;;;;;;;3.76;100.00;99453.44;5035759;28;20447;-70
2023/12/10 03:03:34;;;;;;;4.90;0.93;;;;;;;3.78;100.00;99461.97;5035417;28;20470;-70
2023/12/10 03:06:01;;;;;;;4.20;1.50;;;;;;;3.80;100.00;99467.81;5035550;28;20491;-70
2023/12/10 03:08:28;;;;;;;2.80;1.50;;;;;;;3.77;100.00;99451.56;5035600;28;20443;-70
2023/12/10 03:10:54;;;;;;;2.33;1.00;;;;;;;3.74;100.00;99462.81;5035220;28;20435;-70
2023/12/10 03:13:21;;;;;;;2.20;0.60;;;;;;;3.75;100.00;99461.72;5035329;28;20501;-70
2023/12/10 03:15:48;;;;;;;4.03;1.17;;;;;;;3.74;100.00;99477.00;5035751;28;20435;-70
2023/12/10 03:18:16;;;;;;;7.20;1.70;;;;;;;3.76;100.00;99480.22;5034949;28;20455;-69
2023/12/10 03:20:43;;;;;;;5.20;1.63;;;;;;;3.77;100.00;99481.81;5035409;28;20475;-69
2023/12/10 03:23:09;;;;;;;3.73;1.70;;;;;;;3.77;100.00;99486.38;5035666;28;20471;-69
2023/12/10 03:25:36;;;;;;;3.40;1.07;;;;;;;3.74;100.00;99485.03;5035142;28;20629;-70
2023/12/10 03:28:03;;;;;;;4.03;1.97;;;;;;;3.75;100.00;99483.16;5035357;28;20447;-70
2023/12/10 03:30:29;;;;;;;2.50;0.90;;;;;;;3.76;100.00;99487.44;5035060;28;20947;-69
2023/12/10 03:32:56;;;;;;;2.30;0.70;;;;;;;3.77;100.00;99489.84;5035720;28;20455;-70
2023/12/10 03:35:24;;;;;;;2.77;1.43;;;;;;;3.80;100.00;99493.81;5034876;28;20486;-69
2023/12/10 03:37:51;;;;;;;4.30;1.57;;;;;;;3.76;100.00;99496.28;5034982;28;20954;-69
2023/12/10 03:40:18;;;;;;;2.97;1.10;;;;;;;3.75;100.00;99494.66;5035305;28;20828;-69
2023/12/10 03:42:44;;;;;;;3.60;1.93;;;;;;;3.76;100.00;99496.28;5034971;28;20439;-69
2023/12/10 03:45:11;;;;;;;3.30;1.37;;;;;;;3.76;100.00;99492.78;5034490;28;20525;-69
2023/12/10 03:47:39;;;;;;;2.00;0.67;;;;;;;3.76;100.00;99507.00;5034795;28;20489;-69
2023/12/10 03:50:06;;;;;;;5.97;1.77;;;;;;;3.71;100.00;99509.69;5035181;28;20449;-69
2023/12/10 03:52:35;;;;;;;2.17;0.80;;;;;;;3.74;100.00;99514.50;5034724;28;21002;-69
2023/12/10 03:55:01;;;;;;;3.40;1.23;;;;;;;3.74;100.00;99514.50;5034760;28;20490;-69
2023/12/10 03:57:28;;;;;;;3.57;1.90;;;;;;;3.76;100.00;99517.72;5034755;28;20519;-69
2023/12/10 03:59:55;;;;;;;2.37;1.13;;;;;;;3.72;100.00;99514.00;5034207;28;20447;-69
2023/12/10 04:02:21;;;;;;;2.40;1.10;;;;;;;3.71;100.00;99519.63;5034197;28;20849;-69
2023/12/10 04:04:48;;;;;;;2.50;1.20;;;;;;;3.69;100.00;99519.91;5034430;28;20498;-69
2023/12/10 04:07:15;;;;;;;4.73;1.87;;;;;;;3.68;100.00;99510.28;5034378;28;20834;-69
2023/12/10 04:09:43;;;;;;;2.30;0.70;;;;;;;3.63;100.00;99507.66;5035166;28;20447;-69
2023/12/10 04:12:09;;;;;;;2.20;0.73;;;;;;;3.61;100.00;99517.81;5034403;28;20991;-69
2023/12/10 04:14:37;;;;;;;1.90;0.60;;;;;;;3.61;100.00;99520.50;5034290;28;20513;-69
2023/12/10 04:17:04;;;;;;;2.37;1.00;;;;;;;3.63;100.00;99522.88;5033081;28;20533;-69
2023/12/10 04:19:31;;;;;;;2.47;1.03;;;;;;;3.67;100.00;99515.91;5033882;28;20553;-69
2023/12/10 04:21:58;;;;;;;2.40;1.33;;;;;;;3.66;100.00;99522.34;5034116;28;20469;-69
2023/12/10 04:24:24;;;;;;;3.07;1.23;;;;;;;3.64;100.00;99519.94;5034152;28;20456;-69
2023/12/10 04:26:53;;;;;;;5.20;1.83;;;;;;;3.64;100.00;99519.94;5034035;28;20514;-69
2023/12/10 04:29:19;;;;;;;2.27;0.90;;;;;;;3.63;100.00;99528.25;5034049;28;20451;-69
2023/12/10 04:31:46;;;;;;;2.17;0.80;;;;;;;3.65;100.00;99536.81;5033948;28;20522;-69
2023/12/10 04:34:13;;;;;;;1.90;0.60;;;;;;;3.66;100.00;99533.06;5033543;28;20471;-69
2023/12/10 04:36:40;;;;;;;3.70;1.03;;;;;;;3.67;100.00;99534.63;5034003;28;20435;-69
2023/12/10 04:39:08;;;;;;;3.30;1.57;;;;;;;3.71;100.00;99541.84;5034174;28;20439;-69
2023/12/10 04:41:35;;;;;;;2.87;0.80;;;;;;;3.71;100.00;99536.47;5033836;28;20485;-69
2023/12/10 04:44:03;;;;;;;2.63;1.03;;;;;;;3.78;100.00;99530.81;5033549;28;20463;-69
2023/12/10 04:46:30;;;;;;;2.53;0.90;;;;;;;3.80;100.00;99525.94;5033815;28;20580;-69
2023/12/10 04:48:57;;;;;;;2.80;1.33;;;;;;;3.82;100.00;99526.50;5033537;28;20509;-69
2023/12/10 04:51:24;;;;;;;2.60;0.90;;;;;;;3.87;100.00;99539.03;5033824;28;20509;-69
2023/12/10 04:53:51;;;;;;;1.87;0.47;;;;;;;3.87;100.00;99536.34;5034032;28;20494;-69
2023/12/10 04:56:18;;;;;;;2.00;0.60;;;;;;;3.87;100.00;99547.06;5033857;28;20854;-69
2023/12/10 04:58:45;;;;;;;2.10;0.77;;;;;;;3.84;100.00;99542.25;5033327;28;20439;-69
2023/12/10 05:01:13;;;;;;;4.10;1.13;;;;;;;3.85;100.00;99549.22;5033697;28;20959;-70
2023/12/10 05:03:40;;;;;;;3.20;1.40;;;;;;;3.85;100.00;99547.34;5033333;28;20967;-69
2023/12/10 05:06:07;;;;;;;2.53;1.00;;;;;;;3.89;100.00;99553.72;5033321;28;20485;-70
2023/12/10 05:08:34;;;;;;;3.50;1.23;;;;;;;3.91;100.00;99551.56;5033301;28;20452;-69
2023/12/10 05:11:01;;;;;;;2.27;0.90;;;;;;;3.86;100.00;99554.31;5033606;28;20526;-69
2023/12/10 05:13:27;;;;;;;2.57;1.07;;;;;;;3.83;100.00;99562.09;5033222;28;20846;-69
2023/12/10 05:15:56;;;;;;;2.57;0.70;;;;;;;3.85;100.00;99563.44;5033447;28;20991;-69
2023/12/10 05:18:25;;;;;;;2.83;1.17;;;;;;;3.85;100.00;99574.16;5033496;28;20451;-69
2023/12/10 05:20:52;;;;;;;2.50;1.10;;;;;;;3.79;100.00;99570.69;5033565;28;20477;-69
2023/12/10 05:23:19;;;;;;;2.77;1.67;;;;;;;3.77;100.00;99583.56;5033617;28;20454;-69
2023/12/10 05:25:46;;;;;;;2.53;0.90;;;;;;;3.83;100.00;99578.16;5033278;28;20475;-68
2023/12/10 05:28:13;;;;;;;2.37;1.00;;;;;;;3.85;100.00;99579.50;5036422;28;20439;-69
2023/12/10 05:30:39;;;;;;;4.93;1.20;;;;;;;3.89;100.00;99574.34;5037113;28;20947;-69
2023/12/10 05:33:06;;;;;;;3.53;1.10;;;;;;;3.88;100.00;99580.81;5037961;28;20447;-69
2023/12/10 05:35:34;;;;;;;2.23;1.03;;;;;;;3.91;100.00;99593.63;5037196;28;20474;-69
2023/12/10 05:38:03;;;;;;;3.87;1.10;;;;;;;3.92;100.00;99592.56;5037229;28;20493;-69
2023/12/10 05:40:30;;;;;;;2.03;0.70;;;;;;;3.90;100.00;99597.41;5036920;28;20442;-69
2023/12/10 05:42:57;;;;;;;3.17;1.10;;;;;;;3.89;100.00;99596.59;5037098;28;20475;-69
2023/12/10 05:45:23;;;;;;;2.00;0.67;;;;;;;3.93;100.00;99596.81;5037151;28;20494;-69
2023/12/10 05:47:50;;;;;;;3.70;2.10;;;;;;;3.95;100.00;99598.16;5037191;28;20518;-69
2023/12/10 05:50:17;;;;;;;2.53;0.90;;;;;;;3.97;100.00;99598.66;5037005;28;20958;-69
2023/12/10 05:52:45;;;;;;;9.30;1.50;;;;;;;3.92;100.00;99598.72;5036678;28;20443;-69
2023/12/10 05:55:12;;;;;;;1.90;0.57;;;;;;;3.95;100.00;99597.34;5036800;28;20553;-69
2023/12/10 05:57:38;;;;;;;4.77;1.77;;;;;;;3.99;100.00;99603.75;5035497;28;20987;-69
2023/12/10 06:00:07;;;;;;;3.90;1.00;;;;;;;3.99;100.00;99607.22;5037431;28;20493;-69
2023/12/10 06:02:34;;;;;;;2.40;0.93;;;;;;;3.94;100.00;99609.97;5037148;28;20454;-70
2023/12/10 06:05:00;;;;;;;3.10;1.40;;;;;;;3.98;100.00;99610.16;5036630;28;20460;-68
2023/12/10 06:07:27;;;;;;;2.40;0.90;;;;;;;3.99;100.00;99606.44;5036232;28;20849;-69
2023/12/10 06:09:55;;;;;;;3.40;1.13;;;;;;;4.02;100.00;99609.31;5036669;28;20439;-70
2023/12/10 06:12:22;;;;;;;2.30;0.70;;;;;;;4.07;100.00;99607.69;5036253;28;21024;-70
2023/12/10 06:14:49;;;;;;;4.30;1.17;;;;;;;4.06;100.00;99614.94;5036255;28;20884;-70
2023/12/10 06:17:15;;;;;;;3.40;1.90;;;;;;;4.04;100.00;99620.56;5036439;28;20509;-70
2023/12/10 06:19:42;;;;;;;2.20;1.00;;;;;;;4.00;100.00;99619.53;5036182;28;20963;-70
2023/12/10 06:22:09;;;;;;;1.87;0.50;;;;;;;4.00;100.00;99613.38;5037002;28;20439;-70
2023/12/10 06:24:35;;;;;;;2.47;1.33;;;;;;;3.95;100.00;99624.16;5036250;28;20499;-70
2023/12/10 06:27:04;;;;;;;2.07;0.67;;;;;;;3.93;100.00;99634.31;5036305;28;21069;-70
2023/12/10 06:29:30;;;;;;;5.90;1.20;;;;;;;3.93;100.00;99639.69;5036302;28;20776;-70
2023/12/10 06:31:57;;;;;;;5.17;1.93;;;;;;;3.90;100.00;99641.06;5036166;28;20467;-70
2023/12/10 06:34:24;;;;;;;4.07;1.33;;;;;;;3.84;100.00;99641.38;5035794;28;20459;-70
2023/12/10 06:36:50;;;;;;;2.10;0.70;;;;;;;3.88;100.00;99650.44;5036420;28;20841;-70
2023/12/10 06:39:17;;;;;;;2.73;1.00;;;;;;;3.86;100.00;99656.09;5035512;28;20447;-70
2023/12/10 06:41:44;;;;;;;3.80;1.17;;;;;;;3.92;100.00;99664.88;5036602;28;20443;-70
2023/12/10 06:44:15;;;;;;;2.30;0.90;;;;;;;3.91;100.00;99656.06;5035949;28;20459;-70
2023/12/10 06:46:41;;;;;;;2.73;1.07;;;;;;;3.94;100.00;99663.53;5036087;28;20464;-70
2023/12/10 06:49:08;;;;;;;4.30;1.13;;;;;;;3.91;100.00;99655.25;5036302;28;20868;-70
2023/12/10 06:51:35;;;;;;;3.30;1.70;;;;;;;3.89;100.00;99658.19;5035522;28;20446;-70
2023/12/10 06:54:02;;;;;;;3.30;1.33;;;;;;;3.89;100.00;99654.72;5035754;28;20455;-70
2023/12/10 06:56:29;;;;;;;2.37;1.07;;;;;;;3.86;100.00;99656.09;5036211;28;21008;-70
2023/12/10 06:58:55;;;;;;;2.47;1.20;;;;;;;3.79;100.00;99656.41;5036233;28;20471;-70
2023/12/10 07:01:23;;;;;;;2.23;0.80;;;;;;;3.77;100.00;99663.91;5035699;28;20443;-70
2023/12/10 07:03:51;;;;;;;1.80;0.50;;;;;;;3.74;100.00;99656.44;5035689;28;20830;-70
2023/12/10 07:06:18;;;;;;;2.10;0.67;;;;;;;3.70;100.00;99663.41;5035478;28;20491;-70
2023/12/10 07:08:45;;;;;;;3.40;1.60;;;;;;;3.61;100.00;99664.28;5035831;28;20438;-70
2023/12/10 07:11:11;;;;;;;2.10;0.87;;;;;;;3.59;100.00;99666.47;5035202;28;20445;-70
2023/12/10 07:13:38;;;;;;;1.90;0.60;;;;;;;3.57;100.00;99669.41;5035053;28;20975;-70
2023/12/10 07:16:06;;;;;;;1.90;0.53;;;;;;;3.55;100.00;99671.56;5035392;28;20516;-70
2023/12/10 07:18:34;;;;;;;2.87;0.53;;;;;;;3.49;100.00;99683.34;5055862;22;20501;-68
2023/12/10 07:21:00;;;;;;;4.00;1.47;;;;;;;3.43;100.00;99687.16;5055315;28;20529;-68
2023/12/10 07:23:27;;;;;;;2.27;0.90;;;;;;;3.44;100.00;99692.22;5055880;28;20468;-68
2023/12/10 07:25:54;;;;;;;2.40;0.97;;;;;;;3.46;100.00;99694.63;5054862;28;20434;-68
2023/12/10 07:28:20;;;;;;;2.60;1.00;;;;;;;3.50;100.00;99695.69;5055085;28;20485;-68
2023/12/10 07:30:47;;;;;;;3.97;0.70;;;;;;;3.56;100.00;99694.56;5055013;28;20443;-68
2023/12/10 07:33:14;;;;;;;2.00;0.80;;;;;;;3.58;100.00;99692.41;5055149;28;20434;-68
2023/12/10 07:35:42;;;;;;;2.20;0.93;;;;;;;3.60;100.00;99687.59;5055217;28;20443;-68
2023/12/10 07:38:09;;;;;;;2.20;0.50;;;;;;;3.62;100.00;99680.06;5055007;28;20445;-68
2023/12/10 07:40:35;;;;;;;3.40;1.40;;;;;;;3.71;100.00;99691.78;5055160;28;20442;-68
2023/12/10 07:43:02;;;;;;;2.00;0.60;;;;;;;3.75;100.00;99692.84;5055314;28;20442;-68
2023/12/10 07:45:29;;;;;;;2.47;1.30;;;;;;;3.84;100.00;99689.56;5054812;28;20527;-69
2023/12/10 07:47:56;;;;;;;1.80;0.50;;;;;;;3.85;100.00;99693.84;5055102;28;20879;-68
2023/12/10 07:50:23;;;;;;;4.03;1.13;;;;;;;3.90;100.00;99693.84;5054446;28;20499;-68
2023/12/10 07:52:51;;;;;;;2.40;1.10;;;;;;;3.96;100.00;99701.53;5054743;28;20945;-68
2023/12/10 07:55:18;;;;;;;1.87;0.50;;;;;;;4.00;100.00;99701.78;5054627;28;20454;-68
2023/12/10 07:57:45;;;;;;;2.10;1.00;;;;;;;4.09;100.00;99710.03;5054741;28;20438;-69
2023/12/10 08:00:13;;;;;;;3.17;0.63;;;;;;;4.14;100.00;99720.72;5054815;28;20447;-69
2023/12/10 08:02:40;;;;;;;2.60;1.00;;;;;;;4.20;100.00;99720.38;5054402;28;20777;-69
2023/12/10 08:05:07;;;;;;;2.10;0.77;;;;;;;4.27;100.00;99720.88;5054597;28;20462;-69
2023/12/10 08:07:33;;;;;;;3.33;1.50;;;;;;;4.37;100.00;99720.00;5054349;28;20522;-69
2023/12/10 08:10:01;;;;;;;3.63;1.20;;;;;;;4.45;100.00;99719.38;5055062;28;20841;-71
2023/12/10 08:12:28;;;;;;;3.13;1.63;;;;;;;4.49;100.00;99715.06;5053986;28;20295;-69
2023/12/10 08:14:54;;;;;;;2.57;0.90;;;;;;;4.59;100.00;99722.22;5054832;28;20462;-69
2023/12/10 08:17:22;;;;;;;3.03;1.00;;;;;;;4.65;100.00;99725.63;5054519;28;20430;-70
2023/12/10 08:19:48;;;;;;;2.70;0.90;;;;;;;4.75;100.00;99728.25;5054220;28;20516;-69
2023/12/10 08:22:15;;;;;;;2.97;0.80;;;;;;;4.83;100.00;99732.19;5054493;28;20465;-69
2023/12/10 08:24:43;;;;;;;3.47;1.03;;;;;;;4.95;100.00;99738.75;5054236;28;20515;-69
2023/12/10 08:27:11;;;;;;;2.43;0.80;;;;;;;5.06;100.00;99742.13;5053843;28;20521;-69
2023/12/10 08:29:37;;;;;;;1.90;0.50;;;;;;;5.14;100.00;99743.41;5053942;28;20449;-69
2023/12/10 08:32:05;;;;;;;3.17;0.97;;;;;;;5.27;100.00;99743.50;5053862;28;20449;-69
2023/12/10 08:34:32;;;;;;;2.23;0.90;;;;;;;5.46;100.00;99735.50;5053506;28;20486;-69
2023/12/10 08:36:59;;;;;;;2.93;0.70;;;;;;;5.60;100.00;99732.09;5054172;28;20438;-69
2023/12/10 08:39:26;;;;;;;2.10;0.80;;;;;;;5.83;100.00;99739.28;5053768;28;20491;-69
2023/12/10 08:41:53;;;;;;;2.90;1.00;;;;;;;5.99;100.00;99748.00;5053553;28;20817;-69
2023/12/10 08:44:21;;;;;;;3.20;1.20;;;;;;;6.09;100.00;99742.44;5053686;28;20504;-69
2023/12/10 08:46:48;;;;;;;2.00;0.60;;;;;;;6.18;100.00;99747.97;5053658;28;20446;-69
2023/12/10 08:49:14;;;;;;;1.90;0.50;;;;;;;6.28;100.00;99745.91;5053544;28;20453;-70
2023/12/10 08:51:41;;;;;;;1.80;0.40;;;;;;;6.39;100.00;99745.75;5053311;28;20438;-76
2023/12/10 08:54:08;;;;;;;3.00;0.90;;;;;;;6.47;100.00;99747.78;5053640;28;20458;-66
2023/12/10 08:56:35;;;;;;;2.40;0.60;;;;;;;6.55;100.00;99750.59;5053345;28;20499;-66
2023/12/10 08:59:03;;;;;;;2.43;0.70;;;;;;;6.61;100.00;99742.44;5053497;28;20438;-66
2023/12/10 09:01:31;;;;;;;2.40;0.70;;;;;;;6.70;100.00;99751.44;5053080;28;20496;-65
2023/12/10 09:03:59;;;;;;;1.97;0.47;;;;;;;6.82;100.00;99749.88;5053594;28;20881;-65
2023/12/10 09:06:25;;;;;;;4.27;0.70;;;;;;;6.91;100.00;99751.88;5053850;28;20500;-65
2023/12/10 09:08:51;;;;;;;2.00;0.60;;;;;;;7.00;100.00;99760.88;5053364;28;20481;-66
2023/12/10 09:11:18;;;;;;;3.20;0.80;;;;;;;7.05;100.00;99756.19;5053201;28;20204;-65
2023/12/10 09:13:45;;;;;;;2.17;0.60;;;;;;;7.08;100.00;99754.78;5053418;28;20540;-66
2023/12/10 09:16:11;;;;;;;1.93;0.50;;;;;;;7.09;100.00;99748.31;5053801;28;20489;-65
2023/12/10 09:18:40;;;;;;;2.00;0.57;;;;;;;7.10;100.00;99763.38;5053155;28;20489;-65
2023/12/10 09:21:07;;;;;;;2.10;0.50;;;;;;;7.13;100.00;99762.78;5053546;28;20914;-66
2023/12/10 09:23:34;;;;;;;1.90;0.40;;;;;;;7.15;100.00;99767.84;5053466;28;20477;-68
2023/12/10 09:26:01;;;;;;;1.90;0.40;;;;;;;7.15;100.00;99765.97;5053778;28;20461;-68
2023/12/10 09:28:27;;;;;;;2.20;0.70;;;;;;;7.17;100.00;99765.66;5053036;28;20482;-67
2023/12/10 09:30:54;;;;;;;2.27;0.70;;;;;;;7.28;100.00;99767.06;5052901;28;20438;-65
2023/12/10 09:33:21;;;;;;;2.43;0.73;;;;;;;7.32;100.00;99773.44;5053203;28;20499;-67
2023/12/10 09:35:49;;;;;;;2.00;0.60;;;;;;;7.38;100.00;99779.53;5053041;28;20442;-67
2023/12/10 09:38:16;;;;;;;1.80;0.30;;;;;;;7.43;100.00;99774.03;5053557;28;20430;-67
2023/12/10 09:40:42;;;;;;;1.97;0.43;;;;;;;7.45;100.00;99783.44;5053006;28;20989;-67
2023/12/10 09:43:09;;;;;;;2.00;0.40;;;;;;;7.50;100.00;99785.22;5053113;28;20857;-67
2023/12/10 09:45:36;;;;;;;4.67;0.50;;;;;;;7.51;100.00;99781.44;5053274;28;20494;-68
2023/12/10 09:48:04;;;;;;;2.23;0.87;;;;;;;7.56;100.00;99784.00;5053120;28;20485;-65
2023/12/10 09:50:32;;;;;;;1.90;0.60;;;;;;;7.55;100.00;99785.13;5053139;28;20468;-66
2023/12/10 09:53:00;;;;;;;3.20;0.80;;;;;;;7.62;100.00;99790.91;5052880;28;20918;-65
2023/12/10 09:55:27;;;;;;;1.87;0.40;;;;;;;7.69;100.00;99793.19;5052871;28;20477;-65
2023/12/10 09:57:54;;;;;;;1.80;0.43;;;;;;;7.69;100.00;99787.78;5053510;28;20442;-65
2023/12/10 10:00:21;;;;;;;2.63;0.90;;;;;;;7.72;100.00;99782.59;5052996;28;20442;-66
2023/12/10 10:02:47;;;;;;;1.90;0.50;;;;;;;7.73;100.00;99792.28;5053396;28;20430;-66
2023/12/10 10:05:15;;;;;;;1.80;0.47;;;;;;;7.71;100.00;99794.50;5053192;28;20464;-66
2023/12/10 10:07:42;;;;;;;2.20;0.80;;;;;;;7.67;100.00;99785.41;5054022;28;20486;-65
2023/12/10 10:10:11;;;;;;;2.20;0.50;;;;;;;7.67;100.00;99792.69;5053613;28;20456;-66
2023/12/10 10:12:38;;;;;;;2.30;0.80;;;;;;;7.69;100.00;99793.19;5052873;28;20445;-66
2023/12/10 10:15:06;;;;;;;2.00;0.60;;;;;;;7.63;100.00;99787.13;5055355;28;20977;-66
2023/12/10 10:17:37;;;;;;;2.10;0.50;;;;;;;7.60;100.00;99793.09;5056818;28;20472;-66
2023/12/10 10:20:04;;;;;;;2.20;0.43;;;;;;;7.61;100.00;99792.00;5056355;28;20503;-66
2023/12/10 10:22:32;;;;;;;2.00;0.47;;;;;;;7.56;100.00;99787.50;5056942;28;20438;-66
2023/12/10 10:24:59;;;;;;;2.20;0.87;;;;;;;7.59;100.00;99791.50;5056579;28;20488;-65
2023/12/10 10:27:28;;;;;;;1.90;0.40;;;;;;;7.59;100.00;99795.00;5056422;28;20482;-66
2023/12/10 10:29:55;;;;;;;1.87;0.40;;;;;;;7.57;100.00;99788.31;5057113;28;20434;-65
2023/12/10 10:32:22;;;;;;;1.77;0.40;;;;;;;7.55;100.00;99791.31;5056412;28;20984;-65
2023/12/10 10:34:50;;;;;;;2.63;0.93;;;;;;;7.56;100.00;99782.09;5056619;28;20527;-65
2023/12/10 10:37:18;;;;;;;1.87;0.40;;;;;;;7.55;100.00;99787.81;5056497;28;20520;-66
2023/12/10 10:39:46;;;;;;;3.20;0.60;;;;;;;7.54;100.00;99791.63;5056374;28;20438;-67
2023/12/10 10:42:13;;;;;;;1.80;0.40;;;;;;;7.55;100.00;99787.81;5056646;28;20447;-66
2023/12/10 10:44:42;;;;;;;1.90;0.50;;;;;;;7.55;100.00;99790.50;5056696;28;20489;-67
2023/12/10 10:47:10;;;;;;;1.80;0.40;;;;;;;7.54;100.00;99791.63;5056299;28;20442;-66
2023/12/10 10:49:39;;;;;;;1.80;0.40;;;;;;;7.56;100.00;99790.19;5056213;28;20498;-66
2023/12/10 10:52:10;;;;;;;2.57;0.83;;;;;;;7.55;100.00;99785.13;5055637;28;20438;-66
2023/12/10 10:54:38;;;;;;;2.63;0.90;;;;;;;7.54;100.00;99784.31;5055377;28;20531;-66
2023/12/10 10:57:05;;;;;;;1.80;0.37;;;;;;;7.56;100.00;99781.31;5055809;28;20442;-66
2023/12/10 10:59:33;;;;;;;1.90;0.40;;;;;;;7.57;100.00;99785.63;5055983;28;20492;-65
2023/12/10 11:02:03;;;;;;;4.00;0.73;;;;;;;7.58;100.00;99779.13;5055805;28;20445;-66
2023/12/10 11:04:38;;;;;;;2.20;0.60;;;;;;;7.59;100.00;99786.91;5055356;28;20457;-66
2023/12/10 11:07:05;;;;;;;1.77;0.37;;;;;;;7.60;100.00;99782.31;5055378;28;20450;-66
2023/12/10 11:09:32;;;;;;;1.80;0.40;;;;;;;7.64;100.00;99774.44;5055746;28;20483;-66
2023/12/10 11:11:59;;;;;;;1.90;0.40;;;;;;;7.67;100.00;99771.94;5055432;28;20442;-66
2023/12/10 11:14:28;;;;;;;2.20;0.57;;;;;;;7.66;100.00;99773.03;5055405;28;20458;-66
2023/12/10 11:16:59;;;;;;;1.80;0.40;;;;;;;7.64;100.00;99767.13;5055325;28;20881;-66
2023/12/10 11:19:28;;;;;;;1.80;0.40;;;;;;;7.65;100.00;99767.94;5055384;28;20896;-66
2023/12/10 11:21:55;;;;;;;1.80;0.40;;;;;;;7.66;100.00;99773.03;5055575;28;20446;-65
2023/12/10 11:24:23;;;;;;;3.20;0.50;;;;;;;7.67;100.00;99774.63;5054731;28;20501;-66
2023/12/10 11:26:49;;;;;;;2.00;0.60;;;;;;;7.67;100.00;99769.25;5055395;28;20446;-66
2023/12/10 11:29:16;;;;;;;1.80;0.40;;;;;;;7.71;100.00;99774.84;5054815;28;20490;-65
2023/12/10 11:31:44;;;;;;;6.33;0.90;;;;;;;7.65;100.00;99771.41;5055222;28;20438;-66
2023/12/10 11:34:10;;;;;;;1.90;0.40;;;;;;;7.66;100.00;99766.81;5055124;28;20458;-66